Aviation Digital Data Service (ADDS)

Output produced by METARs form (1809 UTC 14 August 2018)
found at http://www.aviationweather.gov/adds/metars/
 
FBFT 141700Z VRB02KT CAVOK 21/01 Q1022
TAF FBFT 141200Z 1415/1424 05007KT CAVOK
       
FBKE 141500Z 11006KT CAVOK 29/06 Q1020
TAF FBKE 141200Z 1415/1424 10005KT CAVOK
       
FBMN 141700Z VRB02KT CAVOK 22/07 Q1020
TAF FBMN 141200Z 1415/1424 06004KT CAVOK
       
FBSP 141700Z 00000KT CAVOK 25/11 Q1021
TAF FBSP 141200Z 1415/1424 04005KT CAVOK
       
FBSK 141800Z 12007KT CAVOK 21/M00 Q1022 NOSIG
TAF FBSK 141500Z 1418/1524 08007KT CAVOK
       
FBFT 141700Z VRB02KT CAVOK 21/01 Q1022
TAF FBFT 141200Z 1415/1424 05007KT CAVOK